Time;durP1;ratioP1;P1;durP2;ratioP2;P2;SDS_P1;SDS_P2;PMS_P1;PMS_P2;Temp;Humidity;BMP_temperature;BMP_pressure;BME280_temperature;BME280_humidity;BME280_pressure;Samples;Min_cycle;Max_cycle;Signal;HPM_P1;HPM_P2
2022/08/01 16:07:07;;;;;;;3.72;1.15;;;28.80;1.00;;;;;;6184389;23;20031;-94
2022/08/01 16:10:14;;;;;;;4.07;1.02;;;29.00;1.00;;;;;;6160578;23;20060;-92
2022/08/01 16:19:21;;;;;;;1.00;0.60;;;28.90;1.00;;;;;;6218630;23;20437;-87
2022/08/01 16:21:48;;;;;;;3.50;1.00;;;29.20;1.00;;;;;;6165288;23;20027;-90
2022/08/01 16:24:15;;;;;;;2.15;1.00;;;29.30;1.00;;;;;;6189833;23;20091;-87
2022/08/01 16:26:48;;;;;;;1.70;0.50;;;29.40;1.00;;;;;;6216428;23;20039;-92
2022/08/01 16:29:30;;;;;;;1.48;0.68;;;29.50;1.00;;;;;;6166868;23;20341;-91
2022/08/01 16:35:43;;;;;;;3.83;1.15;;;29.60;1.00;;;;;;6190145;23;20099;-89
2022/08/01 19:40:09;;;;;;;3.13;0.93;;;22.70;1.00;;;;;;6160695;23;19920;-93
2022/08/01 19:43:23;;;;;;;2.00;0.65;;;22.60;1.00;;;;;;6128696;23;20096;-92
2022/08/01 19:46:13;;;;;;;2.08;0.95;;;22.50;1.00;;;;;;6130904;23;20018;-92
2022/08/01 19:48:53;;;;;;;1.50;0.68;;;22.50;1.00;;;;;;6108830;23;20048;-92
2022/08/01 19:52:00;;;;;;;4.28;1.20;;;22.40;1.00;;;;;;6116550;23;20022;-92
2022/08/01 19:55:01;;;;;;;1.90;0.95;;;22.40;1.00;;;;;;6133974;23;20025;-92
2022/08/01 19:58:31;;;;;;;6.15;1.35;;;22.30;1.00;;;;;;6117509;23;20022;-91
2022/08/01 20:01:58;;;;;;;1.25;0.77;;;22.30;1.00;;;;;;6051350;23;20090;-91
2022/08/01 20:05:37;;;;;;;;;;;;;;;;;;;;;
2022/08/01 20:08:35;;;;;;;3.03;0.65;;;22.20;1.00;;;;;;6067442;23;20034;-92
2022/08/01 20:11:51;;;;;;;3.67;2.00;;;22.10;1.00;;;;;;6021264;23;20059;-93
2022/08/01 20:14:52;;;;;;;1.65;0.80;;;22.10;1.00;;;;;;6024667;23;20030;-93
2022/08/01 20:18:32;;;;;;;3.17;1.13;;;22.00;1.00;;;;;;6045280;23;20030;-92
2022/08/01 20:22:14;;;;;;;2.83;1.50;;;22.00;1.00;;;;;;6072697;23;20022;-92
2022/08/01 20:29:31;;;;;;;1.77;0.65;;;21.90;1.00;;;;;;6001909;23;20044;-93
2022/08/01 20:32:38;;;;;;;2.13;0.82;;;21.80;1.00;;;;;;5951328;23;20482;-91
2022/08/01 20:35:51;;;;;;;1.88;0.75;;;21.70;1.00;;;;;;5997514;23;20031;-91
2022/08/01 20:38:53;;;;;;;3.30;0.80;;;21.70;1.00;;;;;;6015994;23;20035;-91
2022/08/01 20:41:38;;;;;;;2.55;0.80;;;21.60;1.00;;;;;;6033256;23;20442;-92
2022/08/01 20:44:30;;;;;;;2.58;0.60;;;21.60;1.00;;;;;;6130470;23;20050;-93
2022/08/01 20:47:32;;;;;;;3.80;0.70;;;21.50;1.00;;;;;;6108926;23;20024;-91
2022/08/01 20:53:35;;;;;;;1.42;0.95;;;21.40;1.00;;;;;;6157129;23;20100;-92
2022/08/01 20:56:36;;;;;;;2.25;1.35;;;21.40;1.00;;;;;;6131308;23;20018;-89
2022/08/01 20:59:31;;;;;;;2.38;0.70;;;21.30;1.00;;;;;;6130744;23;20021;-91
2022/08/01 21:06:43;;;;;;;1.90;0.68;;;21.20;1.00;;;;;;6157421;23;20092;-92
2022/08/01 21:13:05;;;;;;;3.78;0.95;;;21.10;1.00;;;;;;6128318;23;20018;-92
2022/08/01 21:16:11;;;;;;;2.17;0.70;;;21.10;1.00;;;;;;6108272;23;20035;-94
2022/08/01 21:23:30;;;;;;;3.42;0.82;;;21.00;1.00;;;;;;6037443;23;20079;-93
2022/08/01 21:26:27;;;;;;;2.08;0.85;;;21.00;1.00;;;;;;6061866;23;20029;-92
2022/08/01 21:29:56;;;;;;;2.53;0.65;;;20.90;1.00;;;;;;6132142;23;20101;-92
2022/08/01 21:36:44;;;;;;;2.03;0.98;;;20.80;1.00;;;;;;6130913;23;20018;-92
2022/08/01 21:39:54;;;;;;;3.33;1.05;;;20.80;1.00;;;;;;6110146;23;20446;-91
2022/08/01 21:43:05;;;;;;;2.40;0.90;;;20.70;1.00;;;;;;6156967;23;20028;-93
2022/08/01 21:45:56;;;;;;;1.58;0.70;;;20.70;1.00;;;;;;6130356;23;20014;-92
2022/08/01 21:48:40;;;;;;;2.42;1.10;;;20.70;1.00;;;;;;6107563;23;20017;-92
2022/08/01 21:51:54;;;;;;;2.55;0.90;;;20.60;1.00;;;;;;6131735;23;20044;-92
2022/08/01 21:55:07;;;;;;;3.80;0.93;;;20.60;1.00;;;;;;6132119;23;20335;-94
2022/08/01 21:58:21;;;;;;;2.83;0.90;;;20.60;1.00;;;;;;6132558;23;20029;-94
2022/08/01 22:06:39;;;;;;;2.30;0.60;;;20.50;1.00;;;;;;6009779;23;20024;-92
2022/08/01 22:14:08;;;;;;;;;;;;;;;;;;;;;
2022/08/01 22:17:18;;;;;;;2.90;1.02;;;20.30;1.00;;;;;;5949531;23;20015;-92
2022/08/01 22:20:56;;;;;;;2.97;1.42;;;20.30;1.00;;;;;;5963345;24;20133;-92
2022/08/01 22:24:29;;;;;;;;;;;;;;;;;;;;;
2022/08/01 22:27:55;;;;;;;1.98;0.70;;;20.20;1.00;;;;;;6036059;23;20031;-92
2022/08/01 22:31:16;;;;;;;1.80;0.80;;;20.20;1.00;;;;;;6024784;23;20106;-93
2022/08/01 22:34:45;;;;;;;2.90;0.88;;;20.10;1.00;;;;;;6015550;23;20089;-94
2022/08/01 22:38:32;;;;;;;1.20;0.82;;;20.10;1.00;;;;;;6025182;23;20119;-95
2022/08/01 22:42:53;;;;;;;;;;;;;;;;;;;;;
2022/08/01 22:50:47;;;;;;;2.17;0.63;;;20.00;1.00;;;;;;6066567;23;20088;-94
2022/08/01 22:58:20;;;;;;;2.28;0.73;;;19.90;1.00;;;;;;5905114;24;20045;-93
2022/08/01 23:25:38;;;;;;;;;;;;;;;;;;;;;
2022/08/01 23:34:52;;;;;;;;;;;;;;;;;;;;;
2022/08/01 23:38:55;;;;;;;;;;;;;;;;;;;;;
2022/08/01 23:43:07;;;;;;;0.98;0.73;;;19.60;1.00;;;;;;5982757;24;20036;-94
